createdAt,value
2022-10-07T00:00:28.914Z,2.40
2022-10-07T00:01:28.930Z,2.40
2022-10-07T00:02:29.057Z,2.30
2022-10-07T00:03:28.887Z,2.50
2022-10-07T00:04:28.875Z,2.40
2022-10-07T00:05:28.866Z,2.50
2022-10-07T00:06:28.901Z,2.40
2022-10-07T00:07:28.936Z,2.50
2022-10-07T00:08:28.849Z,3.10
2022-10-07T00:09:28.858Z,2.90
2022-10-07T00:10:28.848Z,2.70
2022-10-07T00:11:28.839Z,2.70
2022-10-07T00:12:28.852Z,3.20
2022-10-07T00:13:28.824Z,2.70
2022-10-07T00:14:28.831Z,2.90
2022-10-07T00:15:28.801Z,2.70
2022-10-07T00:16:28.841Z,2.90
2022-10-07T00:17:28.838Z,2.90
2022-10-07T00:18:28.814Z,3.10
2022-10-07T00:19:28.788Z,3.00
2022-10-07T00:20:28.779Z,3.30
2022-10-07T00:21:28.803Z,3.20
2022-10-07T00:22:28.783Z,3.50
2022-10-07T00:23:28.793Z,4.20
2022-10-07T00:24:28.773Z,3.30
2022-10-07T00:25:28.759Z,3.40
2022-10-07T00:26:28.765Z,3.30
2022-10-07T00:27:28.737Z,3.60
2022-10-07T00:28:28.785Z,3.70
2022-10-07T00:29:28.735Z,3.40
2022-10-07T00:30:28.751Z,3.50
2022-10-07T00:31:28.719Z,3.30
2022-10-07T00:32:28.737Z,3.90
2022-10-07T00:33:28.706Z,3.80
2022-10-07T00:34:28.716Z,3.20
2022-10-07T00:35:28.698Z,3.30
2022-10-07T00:36:28.692Z,3.20
2022-10-07T00:37:28.715Z,3.70
2022-10-07T00:38:28.696Z,3.50
2022-10-07T00:39:28.698Z,3.00
2022-10-07T00:40:28.678Z,2.70
2022-10-07T00:41:28.666Z,2.80
2022-10-07T00:42:28.663Z,2.90
2022-10-07T00:43:28.663Z,3.00
2022-10-07T00:44:28.666Z,2.70
2022-10-07T00:45:28.706Z,2.80
2022-10-07T00:46:28.696Z,2.90
2022-10-07T00:47:28.629Z,2.70
2022-10-07T00:48:28.629Z,3.00
2022-10-07T00:49:28.616Z,2.80
2022-10-07T00:50:28.619Z,2.60
2022-10-07T00:51:28.616Z,2.70
2022-10-07T00:52:28.621Z,2.60
2022-10-07T00:53:28.608Z,2.90
2022-10-07T00:54:28.601Z,2.80
2022-10-07T00:55:28.590Z,2.90
2022-10-07T00:56:28.582Z,3.00
2022-10-07T00:57:28.586Z,3.50
2022-10-07T00:58:28.572Z,3.40
2022-10-07T00:59:28.559Z,3.90
2022-10-07T01:00:28.593Z,3.70
2022-10-07T01:01:28.597Z,3.20
2022-10-07T01:02:28.727Z,3.50
2022-10-07T01:03:28.542Z,3.80
2022-10-07T01:04:28.538Z,3.90
2022-10-07T01:05:28.549Z,3.90
2022-10-07T01:06:28.536Z,3.60
2022-10-07T01:07:28.516Z,3.70
2022-10-07T01:08:28.537Z,3.30
2022-10-07T01:09:28.513Z,3.00
2022-10-07T01:10:28.519Z,3.20
2022-10-07T01:11:28.501Z,3.60
2022-10-07T01:12:28.506Z,3.30
2022-10-07T01:13:28.503Z,3.60
2022-10-07T01:14:28.479Z,3.20
2022-10-07T01:15:28.486Z,3.40
2022-10-07T01:16:28.527Z,3.00
2022-10-07T01:17:28.486Z,3.90
2022-10-07T01:18:28.457Z,4.00
2022-10-07T01:19:28.450Z,3.70
2022-10-07T01:20:28.436Z,5.40
2022-10-07T01:21:28.428Z,5.60
2022-10-07T01:22:28.437Z,5.30
2022-10-07T01:23:28.436Z,4.90
2022-10-07T01:24:28.417Z,3.70
2022-10-07T01:25:28.408Z,2.90
2022-10-07T01:26:28.407Z,2.70
2022-10-07T01:27:28.396Z,3.70
2022-10-07T01:28:28.437Z,3.90
2022-10-07T01:29:28.407Z,3.60
2022-10-07T01:30:28.485Z,3.10
2022-10-07T01:31:28.370Z,3.60
2022-10-07T01:32:28.382Z,3.90
2022-10-07T01:33:28.367Z,3.70
2022-10-07T01:34:28.380Z,3.00
2022-10-07T01:35:28.361Z,3.60
2022-10-07T01:36:28.352Z,3.90
2022-10-07T01:37:28.350Z,4.40
2022-10-07T01:38:28.337Z,3.60
2022-10-07T01:39:28.335Z,3.30
2022-10-07T01:40:28.349Z,2.80
2022-10-07T01:41:28.315Z,3.10
2022-10-07T01:42:28.322Z,2.80
2022-10-07T01:43:28.312Z,3.50
2022-10-07T01:44:28.310Z,3.30
2022-10-07T01:45:28.322Z,3.70
2022-10-07T01:46:28.381Z,3.80
2022-10-07T01:47:28.290Z,3.50
2022-10-07T01:48:28.281Z,3.60
2022-10-07T01:49:28.307Z,3.20
2022-10-07T01:50:28.274Z,3.00
2022-10-07T01:51:28.283Z,2.80
2022-10-07T01:52:28.258Z,3.30
2022-10-07T01:53:28.250Z,3.10
2022-10-07T01:54:28.250Z,2.70
2022-10-07T01:55:28.257Z,2.40
2022-10-07T01:56:28.235Z,2.20
2022-10-07T01:57:28.236Z,2.70
2022-10-07T01:58:28.234Z,2.70
2022-10-07T01:59:28.212Z,3.20
2022-10-07T02:00:28.242Z,3.70
2022-10-07T02:01:28.257Z,3.30
2022-10-07T02:02:28.210Z,3.40
2022-10-07T02:03:28.241Z,3.90
2022-10-07T02:04:28.199Z,3.40
2022-10-07T02:05:28.180Z,2.90
2022-10-07T02:06:28.179Z,2.80
2022-10-07T02:07:28.193Z,2.90
2022-10-07T02:08:28.189Z,2.80
2022-10-07T02:09:28.165Z,3.10
2022-10-07T02:10:28.153Z,2.70
2022-10-07T02:11:28.144Z,2.90
2022-10-07T02:12:28.144Z,2.60
2022-10-07T02:13:28.160Z,4.40
2022-10-07T02:14:28.142Z,3.50
2022-10-07T02:15:28.195Z,3.40
2022-10-07T02:16:28.144Z,3.50
2022-10-07T02:17:28.117Z,2.80
2022-10-07T02:18:28.118Z,2.70
2022-10-07T02:19:28.099Z,2.80
2022-10-07T02:20:28.105Z,3.30
2022-10-07T02:21:28.111Z,3.10
2022-10-07T02:22:28.111Z,2.60
2022-10-07T02:23:28.092Z,2.90
2022-10-07T02:24:28.098Z,2.70
2022-10-07T02:25:28.075Z,2.60
2022-10-07T02:26:28.069Z,2.60
2022-10-07T02:27:28.076Z,2.90
2022-10-07T02:28:28.160Z,2.30
2022-10-07T02:29:28.051Z,2.90
2022-10-07T02:30:28.059Z,2.20
2022-10-07T02:31:28.086Z,2.10
2022-10-07T02:32:28.043Z,2.90
2022-10-07T02:33:28.041Z,1.70
2022-10-07T02:34:28.062Z,1.80
2022-10-07T02:35:28.029Z,1.70
2022-10-07T02:36:28.025Z,1.80
2022-10-07T02:37:28.022Z,1.80
2022-10-07T02:38:28.012Z,2.10
2022-10-07T02:39:28.008Z,2.40
2022-10-07T02:40:28.029Z,2.80
2022-10-07T02:41:28.000Z,2.00
2022-10-07T02:42:27.997Z,1.90
2022-10-07T02:43:28.006Z,2.10
2022-10-07T02:44:28.002Z,1.80
2022-10-07T02:45:27.982Z,2.50
2022-10-07T02:46:28.068Z,2.40
2022-10-07T02:47:27.993Z,2.30
2022-10-07T02:48:27.965Z,2.10
2022-10-07T02:49:27.958Z,2.10
2022-10-07T02:50:27.951Z,1.90
2022-10-07T02:51:27.944Z,2.20
2022-10-07T02:52:27.937Z,3.10
2022-10-07T02:53:27.950Z,3.10
2022-10-07T02:54:27.937Z,2.20
2022-10-07T02:55:27.922Z,2.30
2022-10-07T02:56:27.918Z,2.10
2022-10-07T02:57:27.902Z,2.00
2022-10-07T02:58:27.909Z,2.50
2022-10-07T02:59:27.915Z,2.20
2022-10-07T03:00:27.892Z,2.20
2022-10-07T03:01:27.911Z,2.10
2022-10-07T03:02:27.879Z,2.50
2022-10-07T03:03:27.914Z,2.00
2022-10-07T03:04:27.871Z,1.90
2022-10-07T03:05:27.889Z,1.90
2022-10-07T03:06:27.876Z,2.10
2022-10-07T03:07:27.844Z,1.80
2022-10-07T03:08:27.841Z,1.60
2022-10-07T03:09:27.834Z,2.30
2022-10-07T03:10:27.852Z,2.00
2022-10-07T03:11:27.834Z,2.10
2022-10-07T03:12:27.840Z,2.10
2022-10-07T03:13:27.830Z,2.40
2022-10-07T03:14:27.815Z,2.50
2022-10-07T03:15:27.825Z,1.90
2022-10-07T03:16:27.890Z,1.80
2022-10-07T03:17:27.836Z,2.10
2022-10-07T03:18:27.829Z,1.80
2022-10-07T03:19:27.835Z,1.90
2022-10-07T03:20:27.841Z,1.70
2022-10-07T03:21:27.815Z,1.70
2022-10-07T03:22:27.802Z,1.90
2022-10-07T03:23:27.816Z,1.80
2022-10-07T03:24:27.777Z,1.60
2022-10-07T03:25:27.785Z,1.90
2022-10-07T03:26:27.752Z,1.90
2022-10-07T03:27:27.759Z,1.70
2022-10-07T03:28:27.777Z,1.60
2022-10-07T03:29:27.732Z,1.40
2022-10-07T03:30:27.732Z,1.50
2022-10-07T03:31:27.871Z,1.30
2022-10-07T03:32:27.715Z,1.30
2022-10-07T03:33:27.731Z,1.20
2022-10-07T03:34:27.711Z,1.40
2022-10-07T03:35:27.704Z,2.00
2022-10-07T03:36:27.719Z,1.40
2022-10-07T03:37:27.704Z,1.40
2022-10-07T03:38:27.686Z,1.40
2022-10-07T03:39:27.700Z,1.50
2022-10-07T03:40:27.690Z,1.40
2022-10-07T03:41:27.667Z,1.40
2022-10-07T03:42:27.668Z,1.40
2022-10-07T03:43:27.664Z,1.40
2022-10-07T03:44:27.680Z,1.60
2022-10-07T03:45:27.648Z,1.20
2022-10-07T03:46:27.673Z,1.40
2022-10-07T03:47:27.637Z,1.40
2022-10-07T03:48:27.640Z,1.30
2022-10-07T03:49:27.631Z,1.40
2022-10-07T03:50:27.639Z,1.30
2022-10-07T03:51:27.616Z,1.40
2022-10-07T03:52:27.619Z,1.50
2022-10-07T03:53:27.614Z,1.60
2022-10-07T03:54:27.630Z,1.80
2022-10-07T03:55:27.619Z,1.50
2022-10-07T03:56:27.592Z,1.70
2022-10-07T03:57:27.583Z,2.10
2022-10-07T03:58:27.582Z,1.40
2022-10-07T03:59:27.636Z,1.60
2022-10-07T04:00:27.584Z,1.70
2022-10-07T04:01:27.596Z,1.90
2022-10-07T04:02:27.565Z,2.10
2022-10-07T04:03:27.555Z,1.90
2022-10-07T04:04:27.556Z,2.00
2022-10-07T04:05:27.566Z,2.30
2022-10-07T04:06:27.539Z,1.90
2022-10-07T04:07:27.547Z,2.00
2022-10-07T04:08:27.520Z,2.50
2022-10-07T04:09:27.526Z,2.00
2022-10-07T04:10:27.546Z,1.90
2022-10-07T04:11:27.507Z,1.70
2022-10-07T04:12:27.516Z,2.60
2022-10-07T04:13:27.498Z,1.60
2022-10-07T04:14:27.498Z,1.90
2022-10-07T04:15:27.488Z,2.90
2022-10-07T04:16:27.569Z,1.70
2022-10-07T04:17:27.480Z,2.00
2022-10-07T04:18:27.483Z,1.70
2022-10-07T04:19:27.464Z,1.40
2022-10-07T04:20:27.473Z,1.50
2022-10-07T04:21:27.484Z,1.40
2022-10-07T04:22:27.455Z,1.40
2022-10-07T04:23:27.446Z,1.40
2022-10-07T04:24:27.442Z,1.30
2022-10-07T04:25:27.441Z,1.30
2022-10-07T04:26:27.426Z,1.40
2022-10-07T04:27:50.209Z,1.50
2022-10-07T04:28:28.479Z,1.60
2022-10-07T04:29:27.419Z,1.50
2022-10-07T04:30:27.426Z,1.40
2022-10-07T04:31:27.495Z,1.50
2022-10-07T04:32:27.428Z,1.30
2022-10-07T04:33:27.400Z,1.40
2022-10-07T04:34:27.395Z,1.60
2022-10-07T04:35:27.385Z,1.40
2022-10-07T04:36:27.389Z,1.50
2022-10-07T04:37:27.374Z,1.60
2022-10-07T04:38:28.537Z,1.40
2022-10-07T04:39:49.023Z,2.20
2022-10-07T04:40:28.362Z,1.60
2022-10-07T04:41:27.351Z,1.80
2022-10-07T04:42:27.352Z,2.00
2022-10-07T04:43:27.348Z,1.90
2022-10-07T04:44:27.358Z,2.40
2022-10-07T04:45:27.335Z,2.00
2022-10-07T04:46:27.407Z,1.50
2022-10-07T04:47:27.309Z,2.00
2022-10-07T04:48:27.317Z,1.50
2022-10-07T04:49:27.318Z,1.70
2022-10-07T04:50:27.337Z,1.40
2022-10-07T04:51:27.332Z,1.50
2022-10-07T04:52:27.331Z,1.70
2022-10-07T04:53:27.301Z,1.50
2022-10-07T04:54:27.318Z,1.50
2022-10-07T04:55:27.284Z,1.30
2022-10-07T04:56:27.274Z,1.70
2022-10-07T04:57:27.263Z,1.30
2022-10-07T04:58:27.269Z,1.20
2022-10-07T04:59:29.917Z,1.60
2022-10-07T05:00:27.274Z,1.80
2022-10-07T05:01:27.360Z,1.60
2022-10-07T05:02:27.286Z,1.90
2022-10-07T05:03:27.226Z,2.20
2022-10-07T05:04:27.219Z,2.10
2022-10-07T05:05:27.231Z,2.30
2022-10-07T05:06:27.220Z,2.10
2022-10-07T05:07:27.229Z,1.70
2022-10-07T05:08:27.212Z,1.80
2022-10-07T05:09:27.201Z,1.80
2022-10-07T05:10:27.192Z,1.80
2022-10-07T05:11:27.221Z,2.20
2022-10-07T05:12:27.186Z,2.30
2022-10-07T05:13:27.189Z,2.00
2022-10-07T05:14:27.179Z,3.40
2022-10-07T05:15:27.169Z,2.10
2022-10-07T05:16:27.240Z,1.90
2022-10-07T05:17:27.181Z,1.90
2022-10-07T05:18:27.154Z,3.20
2022-10-07T05:19:27.196Z,3.20
2022-10-07T05:20:27.143Z,3.00
2022-10-07T05:21:27.191Z,2.00
2022-10-07T05:22:27.139Z,2.20
2022-10-07T05:23:28.529Z,3.10
2022-10-07T05:24:27.122Z,3.10
2022-10-07T05:25:27.129Z,1.80
2022-10-07T05:26:27.130Z,2.70
2022-10-07T05:27:27.106Z,2.00
2022-10-07T05:28:27.191Z,1.50
2022-10-07T05:29:27.095Z,3.20
2022-10-07T05:30:27.091Z,2.50
2022-10-07T05:31:27.182Z,1.70
2022-10-07T05:32:27.091Z,2.30
2022-10-07T05:33:27.069Z,4.00
2022-10-07T05:34:27.059Z,2.10
2022-10-07T05:35:27.062Z,4.10
2022-10-07T05:36:27.048Z,2.50
2022-10-07T05:37:27.067Z,1.60
2022-10-07T05:38:27.050Z,2.50
2022-10-07T05:39:27.035Z,2.20
2022-10-07T05:40:27.040Z,2.00
2022-10-07T05:41:27.030Z,2.50
2022-10-07T05:42:27.025Z,2.80
2022-10-07T05:43:27.038Z,3.10
2022-10-07T05:44:27.019Z,2.50
2022-10-07T05:45:27.085Z,2.80
2022-10-07T05:46:27.004Z,2.70
2022-10-07T05:47:27.001Z,3.60
2022-10-07T05:48:27.011Z,2.80
2022-10-07T05:49:27.020Z,2.20
2022-10-07T05:50:26.986Z,2.80
2022-10-07T05:51:27.009Z,2.40
2022-10-07T05:52:26.970Z,2.90
2022-10-07T05:53:26.967Z,3.20
2022-10-07T05:54:26.963Z,2.80
2022-10-07T05:55:26.969Z,2.80
2022-10-07T05:56:26.969Z,2.20
2022-10-07T05:57:26.963Z,2.00
2022-10-07T05:58:26.952Z,3.00
2022-10-07T05:59:26.963Z,3.40
2022-10-07T06:00:26.937Z,2.50
2022-10-07T06:01:26.922Z,2.90
2022-10-07T06:02:27.042Z,3.10
2022-10-07T06:03:26.930Z,2.60
2022-10-07T06:04:26.922Z,2.20
2022-10-07T06:05:26.896Z,2.10
2022-10-07T06:06:26.896Z,2.30
2022-10-07T06:07:29.273Z,2.40
2022-10-07T06:08:26.889Z,2.30
2022-10-07T06:09:26.873Z,2.50
2022-10-07T06:10:26.864Z,2.30
2022-10-07T06:11:26.874Z,2.70
2022-10-07T06:12:26.865Z,2.50
2022-10-07T06:13:26.866Z,3.80
2022-10-07T06:14:26.850Z,3.60
2022-10-07T06:15:26.867Z,3.20
2022-10-07T06:16:26.867Z,2.80
2022-10-07T06:17:26.834Z,3.20
2022-10-07T06:18:26.850Z,2.10
2022-10-07T06:19:26.816Z,3.60
2022-10-07T06:20:26.817Z,2.50
2022-10-07T06:21:26.812Z,2.00
2022-10-07T06:22:26.806Z,1.80
2022-10-07T06:23:26.792Z,2.40
2022-10-07T06:24:26.811Z,3.10
2022-10-07T06:25:26.800Z,2.60
2022-10-07T06:26:26.788Z,4.40
2022-10-07T06:27:26.779Z,3.50
2022-10-07T06:28:26.804Z,3.80
2022-10-07T06:29:26.767Z,4.10
2022-10-07T06:30:26.825Z,4.00
2022-10-07T06:31:26.808Z,2.90
2022-10-07T06:32:26.751Z,2.80
2022-10-07T06:33:26.746Z,2.00
2022-10-07T06:34:26.738Z,2.80
2022-10-07T06:35:26.724Z,2.30
2022-10-07T06:36:26.732Z,3.30
2022-10-07T06:37:26.747Z,2.90
2022-10-07T06:38:26.733Z,3.10
2022-10-07T06:39:26.723Z,3.80
2022-10-07T06:40:26.770Z,4.40
2022-10-07T06:41:26.711Z,4.20
2022-10-07T06:42:26.699Z,6.00
2022-10-07T06:43:26.689Z,3.20
2022-10-07T06:44:26.687Z,4.20
2022-10-07T06:45:26.678Z,3.20
2022-10-07T06:46:26.757Z,3.40
2022-10-07T06:47:26.682Z,2.80
2022-10-07T06:48:26.682Z,3.50
2022-10-07T06:49:26.666Z,2.50
2022-10-07T06:50:26.736Z,7.10
2022-10-07T06:51:26.657Z,5.00
2022-10-07T06:52:26.660Z,4.10
2022-10-07T06:53:26.652Z,6.20
2022-10-07T06:54:26.662Z,17.20
2022-10-07T06:55:26.639Z,4.00
2022-10-07T06:56:26.626Z,5.40
2022-10-07T06:57:55.997Z,7.60
2022-10-07T06:58:27.640Z,5.70
2022-10-07T06:59:26.630Z,6.20
2022-10-07T07:00:26.635Z,4.80
2022-10-07T07:01:26.644Z,2.60
2022-10-07T07:02:26.621Z,2.90
2022-10-07T07:03:26.605Z,3.90
2022-10-07T07:04:26.592Z,4.20
2022-10-07T07:05:26.614Z,8.30
2022-10-07T07:06:26.583Z,3.80
2022-10-07T07:07:26.583Z,3.70
2022-10-07T07:08:26.588Z,3.30
2022-10-07T07:09:26.599Z,2.60
2022-10-07T07:10:26.752Z,3.00
2022-10-07T07:11:26.564Z,3.30
2022-10-07T07:12:26.551Z,3.10
2022-10-07T07:13:26.572Z,3.50
2022-10-07T07:14:26.537Z,4.40
2022-10-07T07:15:26.551Z,4.20
2022-10-07T07:16:26.656Z,3.30
2022-10-07T07:17:26.542Z,3.20
2022-10-07T07:18:26.509Z,3.70
2022-10-07T07:19:26.503Z,3.90
2022-10-07T07:20:26.547Z,5.50
2022-10-07T07:21:26.510Z,4.50
2022-10-07T07:22:26.516Z,3.50
2022-10-07T07:23:26.472Z,4.30
2022-10-07T07:24:26.546Z,5.20
2022-10-07T07:25:26.529Z,11.50
2022-10-07T07:26:26.497Z,10.50
2022-10-07T07:27:26.503Z,3.60
2022-10-07T07:28:26.517Z,3.60
2022-10-07T07:29:26.540Z,3.50
2022-10-07T07:30:26.492Z,4.70
2022-10-07T07:31:26.448Z,4.90
2022-10-07T07:32:26.490Z,5.90
2022-10-07T07:33:26.485Z,7.30
2022-10-07T07:34:26.447Z,4.60
2022-10-07T07:35:26.442Z,3.50
2022-10-07T07:36:26.445Z,3.40
2022-10-07T07:37:26.426Z,2.80
2022-10-07T07:38:26.417Z,3.50
2022-10-07T07:39:26.449Z,3.40
2022-10-07T07:40:26.432Z,3.50
2022-10-07T07:41:26.405Z,3.50
2022-10-07T07:42:26.383Z,3.30
2022-10-07T07:43:26.422Z,4.00
2022-10-07T07:44:29.062Z,4.40
2022-10-07T07:45:26.385Z,4.50
2022-10-07T07:46:26.426Z,4.60
2022-10-07T07:47:26.436Z,5.70
2022-10-07T07:48:26.381Z,4.30
2022-10-07T07:49:26.342Z,4.10
2022-10-07T07:50:26.340Z,3.50
2022-10-07T07:51:26.349Z,3.80
2022-10-07T07:52:26.335Z,3.50
2022-10-07T07:53:26.377Z,5.40
2022-10-07T07:54:26.313Z,3.70
2022-10-07T07:55:26.348Z,3.40
2022-10-07T07:56:26.327Z,3.00
2022-10-07T07:57:26.319Z,3.10
2022-10-07T07:58:26.297Z,3.10
2022-10-07T07:59:26.326Z,2.90
2022-10-07T08:00:26.289Z,3.40
2022-10-07T08:01:26.354Z,3.20
2022-10-07T08:02:26.326Z,3.10
2022-10-07T08:03:26.260Z,2.90
2022-10-07T08:04:26.314Z,3.10
2022-10-07T08:05:26.246Z,3.30
2022-10-07T08:06:26.262Z,2.70
2022-10-07T08:07:26.265Z,2.70
2022-10-07T08:08:26.244Z,2.50
2022-10-07T08:09:26.253Z,3.10
2022-10-07T08:10:26.239Z,3.50
2022-10-07T08:11:26.235Z,3.10
2022-10-07T08:12:26.193Z,2.60
2022-10-07T08:13:26.207Z,3.00
2022-10-07T08:14:26.207Z,3.00
2022-10-07T08:15:26.206Z,3.20
2022-10-07T08:16:26.201Z,3.10
2022-10-07T08:17:26.179Z,3.10
2022-10-07T08:18:26.191Z,18.10
2022-10-07T08:19:26.163Z,10.20
2022-10-07T08:20:26.177Z,15.40
2022-10-07T08:21:26.151Z,4.50
2022-10-07T08:22:26.183Z,3.40
2022-10-07T08:23:26.131Z,3.10
2022-10-07T08:24:26.127Z,4.50
2022-10-07T08:25:26.116Z,5.20
2022-10-07T08:26:26.127Z,8.50
2022-10-07T08:27:26.116Z,4.00
2022-10-07T08:28:26.294Z,7.60
2022-10-07T08:29:26.122Z,4.50
2022-10-07T08:30:26.104Z,6.60
2022-10-07T08:31:26.112Z,3.90
2022-10-07T08:32:26.106Z,3.80
2022-10-07T08:33:26.090Z,3.30
2022-10-07T08:34:26.064Z,3.40
2022-10-07T08:35:26.071Z,3.40
2022-10-07T08:36:26.078Z,3.50
2022-10-07T08:37:26.056Z,3.40
2022-10-07T08:38:26.059Z,3.00
2022-10-07T08:39:26.070Z,3.60
2022-10-07T08:40:26.039Z,3.40
2022-10-07T08:41:26.071Z,3.40
2022-10-07T08:42:26.069Z,3.70
2022-10-07T08:43:26.039Z,4.60
2022-10-07T08:44:26.001Z,4.70
2022-10-07T08:45:25.987Z,6.50
2022-10-07T08:46:26.025Z,6.20
2022-10-07T08:47:25.995Z,6.00
2022-10-07T08:48:25.996Z,4.30
2022-10-07T08:49:25.974Z,3.80
2022-10-07T08:50:25.995Z,4.20
2022-10-07T08:51:25.968Z,4.30
2022-10-07T08:52:25.964Z,4.10
2022-10-07T08:53:25.965Z,4.40
2022-10-07T08:54:25.955Z,3.50
2022-10-07T08:55:25.922Z,3.50
2022-10-07T08:56:25.944Z,3.30
2022-10-07T08:57:25.949Z,3.60
2022-10-07T08:58:25.951Z,3.40
2022-10-07T08:59:25.920Z,3.40
2022-10-07T09:00:25.915Z,3.30
2022-10-07T09:01:25.931Z,3.00
2022-10-07T09:02:25.897Z,3.30
2022-10-07T09:03:25.881Z,3.00
2022-10-07T09:04:25.862Z,3.20
2022-10-07T09:05:25.844Z,3.70
2022-10-07T09:06:25.893Z,2.90
2022-10-07T09:07:25.839Z,3.00
2022-10-07T09:08:25.838Z,2.80
2022-10-07T09:09:25.826Z,2.90
2022-10-07T09:10:25.824Z,2.90
2022-10-07T09:11:25.852Z,3.00
2022-10-07T09:12:25.802Z,3.10
2022-10-07T09:13:25.810Z,3.00
2022-10-07T09:14:25.790Z,3.20
2022-10-07T09:15:25.780Z,3.20
2022-10-07T09:16:25.822Z,3.20
2022-10-07T09:17:25.785Z,3.10
2022-10-07T09:18:25.748Z,3.20
2022-10-07T09:19:25.734Z,2.80
2022-10-07T09:20:25.735Z,2.60
2022-10-07T09:21:25.747Z,2.60
2022-10-07T09:22:25.759Z,2.70
2022-10-07T09:23:25.723Z,2.60
2022-10-07T09:24:25.704Z,2.50
2022-10-07T09:25:25.696Z,2.30
2022-10-07T09:26:25.690Z,2.20
2022-10-07T09:27:25.712Z,2.10
2022-10-07T09:28:25.749Z,1.80
2022-10-07T09:29:25.659Z,2.00
2022-10-07T09:30:25.648Z,1.70
2022-10-07T09:31:25.675Z,2.10
2022-10-07T09:32:25.672Z,2.00
2022-10-07T09:33:25.636Z,2.80
2022-10-07T09:34:25.626Z,2.50
2022-10-07T09:35:25.629Z,1.90
2022-10-07T09:36:25.614Z,1.80
2022-10-07T09:37:25.605Z,2.00
2022-10-07T09:38:25.636Z,1.90
2022-10-07T09:39:25.607Z,2.10
2022-10-07T09:40:25.573Z,1.90
2022-10-07T09:41:30.344Z,2.00
2022-10-07T09:42:26.549Z,1.90
2022-10-07T09:43:25.582Z,1.80
2022-10-07T09:44:25.554Z,2.10
2022-10-07T09:45:25.521Z,2.20
2022-10-07T09:46:25.621Z,2.70
2022-10-07T09:47:25.510Z,3.60
2022-10-07T09:48:25.504Z,2.20
2022-10-07T09:49:25.525Z,2.30
2022-10-07T09:50:25.512Z,1.80
2022-10-07T09:51:25.513Z,4.20
2022-10-07T09:52:25.480Z,4.60
2022-10-07T09:53:25.475Z,2.00
2022-10-07T09:54:25.480Z,1.60
2022-10-07T09:55:25.456Z,1.70
2022-10-07T09:56:25.485Z,1.90
2022-10-07T09:57:25.456Z,1.80
2022-10-07T09:58:25.432Z,1.40
2022-10-07T09:59:25.423Z,1.60
2022-10-07T10:00:25.428Z,2.20
2022-10-07T10:01:25.437Z,6.50
2022-10-07T10:02:25.569Z,20.20
2022-10-07T10:03:25.425Z,2.70
2022-10-07T10:04:25.386Z,1.60
2022-10-07T10:05:25.379Z,1.70
2022-10-07T10:06:25.370Z,1.70
2022-10-07T10:07:25.394Z,1.40
2022-10-07T10:08:25.352Z,1.70
2022-10-07T10:09:25.354Z,1.80
2022-10-07T10:10:25.332Z,1.50
2022-10-07T10:11:25.321Z,2.10
2022-10-07T10:12:25.322Z,3.40
2022-10-07T10:13:25.322Z,1.40
2022-10-07T10:14:25.323Z,1.70
2022-10-07T10:15:25.300Z,2.80
2022-10-07T10:16:25.341Z,4.50
2022-10-07T10:17:25.300Z,5.80
2022-10-07T10:18:25.276Z,2.90
2022-10-07T10:19:25.305Z,1.80
2022-10-07T10:20:25.254Z,1.50
2022-10-07T10:21:25.290Z,1.30
2022-10-07T10:22:25.251Z,1.30
2022-10-07T10:23:25.259Z,1.30
2022-10-07T10:24:25.232Z,1.30
2022-10-07T10:25:25.228Z,1.50
2022-10-07T10:26:28.321Z,1.70
2022-10-07T10:27:26.213Z,1.70
2022-10-07T10:28:25.224Z,1.50
2022-10-07T10:29:25.227Z,1.40
2022-10-07T10:30:25.191Z,1.40
2022-10-07T10:31:25.236Z,1.50
2022-10-07T10:32:25.183Z,1.40
2022-10-07T10:33:25.164Z,1.40
2022-10-07T10:34:25.151Z,1.60
2022-10-07T10:35:25.136Z,1.60
2022-10-07T10:36:25.174Z,1.40
2022-10-07T10:37:25.141Z,1.30
2022-10-07T10:38:25.148Z,1.40
2022-10-07T10:39:25.136Z,1.30
2022-10-07T10:40:25.121Z,1.50
2022-10-07T10:41:25.118Z,1.30
2022-10-07T10:42:25.098Z,1.40
2022-10-07T10:43:25.093Z,1.20
2022-10-07T10:44:25.085Z,1.60
2022-10-07T10:45:25.075Z,1.50
2022-10-07T10:46:25.105Z,1.30
2022-10-07T10:47:25.068Z,1.40
2022-10-07T10:48:25.051Z,1.40
2022-10-07T10:49:25.061Z,1.30
2022-10-07T10:50:25.054Z,1.30
2022-10-07T10:51:25.029Z,1.20
2022-10-07T10:52:25.035Z,1.20
2022-10-07T10:53:25.039Z,1.60
2022-10-07T10:54:25.008Z,1.50
2022-10-07T10:55:24.994Z,1.30
2022-10-07T10:56:24.989Z,1.40
2022-10-07T10:57:24.991Z,1.60
2022-10-07T10:58:24.982Z,1.20
2022-10-07T10:59:25.002Z,1.20
2022-10-07T11:00:24.956Z,1.30
2022-10-07T11:01:24.983Z,1.30
2022-10-07T11:02:24.977Z,1.20
2022-10-07T11:03:24.934Z,1.10
2022-10-07T11:04:24.931Z,1.20
2022-10-07T11:05:24.938Z,1.30
2022-10-07T11:06:24.915Z,1.20
2022-10-07T11:07:24.920Z,1.10
2022-10-07T11:08:27.382Z,1.30
2022-10-07T11:09:28.654Z,1.40
2022-10-07T11:10:25.934Z,1.40
2022-10-07T11:11:24.868Z,1.50
2022-10-07T11:12:25.060Z,1.20
2022-10-07T11:13:24.863Z,1.70
2022-10-07T11:14:24.861Z,1.10
2022-10-07T11:15:24.867Z,1.10
2022-10-07T11:16:24.908Z,1.10
2022-10-07T11:17:24.830Z,1.10
2022-10-07T11:18:24.830Z,1.20
2022-10-07T11:19:24.839Z,1.20
2022-10-07T11:20:24.833Z,1.40
2022-10-07T11:21:24.799Z,1.10
2022-10-07T11:22:24.793Z,1.30
2022-10-07T11:23:24.801Z,1.30
2022-10-07T11:24:24.775Z,1.30
2022-10-07T11:25:24.786Z,1.30
2022-10-07T11:26:24.768Z,1.10
2022-10-07T11:27:24.771Z,1.30
2022-10-07T11:28:24.786Z,1.10
2022-10-07T11:29:24.740Z,1.00
2022-10-07T11:30:24.726Z,1.00
2022-10-07T11:31:24.769Z,1.20
2022-10-07T11:32:24.720Z,1.30
2022-10-07T11:33:24.717Z,1.30
2022-10-07T11:34:24.709Z,1.20
2022-10-07T11:35:24.690Z,1.20
2022-10-07T11:36:24.699Z,1.30
2022-10-07T11:37:24.725Z,1.10
2022-10-07T11:38:24.675Z,1.70
2022-10-07T11:39:24.694Z,1.10
2022-10-07T11:40:28.810Z,1.10
2022-10-07T11:41:24.665Z,1.20
2022-10-07T11:42:24.637Z,1.10
2022-10-07T11:43:24.635Z,1.30
2022-10-07T11:44:24.626Z,1.20
2022-10-07T11:45:24.650Z,1.30
2022-10-07T11:46:24.635Z,1.20
2022-10-07T11:47:24.606Z,1.30
2022-10-07T11:48:24.596Z,1.50
2022-10-07T11:49:24.595Z,1.20
2022-10-07T11:50:24.586Z,1.60
2022-10-07T11:51:24.592Z,1.20
2022-10-07T11:52:24.574Z,1.10
2022-10-07T11:53:24.566Z,1.30
2022-10-07T11:54:24.556Z,1.20
2022-10-07T11:55:24.552Z,1.20
2022-10-07T11:56:24.568Z,1.40
2022-10-07T11:57:24.540Z,1.40
2022-10-07T11:58:24.536Z,1.40
2022-10-07T11:59:24.514Z,1.40
2022-10-07T12:00:24.511Z,1.30
2022-10-07T12:01:24.494Z,1.20
2022-10-07T12:02:24.553Z,1.10
2022-10-07T12:03:24.576Z,1.20
2022-10-07T12:04:24.807Z,1.30
2022-10-07T12:05:24.462Z,1.30
2022-10-07T12:06:24.461Z,1.20
2022-10-07T12:07:24.472Z,1.30
2022-10-07T12:08:24.436Z,1.40
2022-10-07T12:09:24.438Z,1.50
2022-10-07T12:10:24.439Z,1.20
2022-10-07T12:11:24.425Z,1.60
2022-10-07T12:12:24.413Z,1.40
2022-10-07T12:13:24.430Z,1.30
2022-10-07T12:14:24.402Z,1.30
2022-10-07T12:15:24.388Z,1.30
2022-10-07T12:16:24.447Z,1.50
2022-10-07T12:17:24.375Z,1.40
2022-10-07T12:18:24.393Z,1.40
2022-10-07T12:19:24.361Z,1.30
2022-10-07T12:20:24.355Z,1.40
2022-10-07T12:21:24.342Z,1.30
2022-10-07T12:22:24.352Z,1.40
2022-10-07T12:23:24.347Z,1.60
2022-10-07T12:24:24.333Z,1.50
2022-10-07T12:25:24.315Z,1.60
2022-10-07T12:26:24.304Z,1.70
2022-10-07T12:27:24.301Z,1.80
2022-10-07T12:28:24.349Z,1.40
2022-10-07T12:29:24.310Z,1.50
2022-10-07T12:30:24.275Z,1.60
2022-10-07T12:31:24.379Z,1.40
2022-10-07T12:32:24.262Z,1.50
2022-10-07T12:33:24.260Z,1.30
2022-10-07T12:34:24.251Z,1.60
2022-10-07T12:35:24.254Z,1.70
2022-10-07T12:36:24.235Z,1.50
2022-10-07T12:37:24.241Z,1.50
2022-10-07T12:38:24.209Z,1.60
2022-10-07T12:39:24.226Z,1.50
2022-10-07T12:40:24.201Z,1.50
2022-10-07T12:41:24.194Z,1.50
2022-10-07T12:42:24.185Z,1.80
2022-10-07T12:43:24.177Z,1.50
2022-10-07T12:44:24.171Z,1.70
2022-10-07T12:45:24.257Z,1.40
2022-10-07T12:46:24.157Z,2.20
2022-10-07T12:47:24.148Z,1.60
2022-10-07T12:48:24.141Z,1.70
2022-10-07T12:49:24.174Z,1.60
2022-10-07T12:50:24.124Z,1.70
2022-10-07T12:51:24.132Z,1.60
2022-10-07T12:52:24.105Z,1.70
2022-10-07T12:53:24.094Z,1.80
2022-10-07T12:54:24.100Z,1.70
2022-10-07T12:55:28.599Z,1.80
2022-10-07T12:56:24.101Z,1.50
2022-10-07T12:57:24.064Z,1.70
2022-10-07T12:58:24.065Z,1.50
2022-10-07T12:59:24.062Z,1.60
2022-10-07T13:00:24.060Z,1.30
2022-10-07T13:01:24.136Z,1.60
2022-10-07T13:02:24.261Z,1.70
2022-10-07T13:03:24.020Z,1.90
2022-10-07T13:04:24.015Z,1.80
2022-10-07T13:05:24.027Z,1.80
2022-10-07T13:06:31.005Z,1.60
2022-10-07T13:07:24.009Z,1.40
2022-10-07T13:08:23.989Z,1.60
2022-10-07T13:09:23.988Z,1.60
2022-10-07T13:10:23.976Z,1.40
2022-10-07T13:11:23.992Z,1.60
2022-10-07T13:12:23.961Z,1.70
2022-10-07T13:13:23.956Z,1.50
2022-10-07T13:14:23.982Z,1.80
2022-10-07T13:15:23.951Z,1.80
2022-10-07T13:16:23.957Z,1.80
2022-10-07T13:17:23.919Z,1.60
2022-10-07T13:18:23.925Z,1.70